sensor_id;sensor_type;location;lat;lon;timestamp;temperature;humidity
292;DHT22;23311;48.776;9.162;2023-06-22T00:01:20;22.00;95.50
292;DHT22;23311;48.776;9.162;2023-06-22T00:03:49;22.00;95.50
292;DHT22;23311;48.776;9.162;2023-06-22T00:06:17;21.90;95.50
292;DHT22;23311;48.776;9.162;2023-06-22T00:08:46;21.90;95.50
292;DHT22;23311;48.776;9.162;2023-06-22T00:11:16;21.90;95.50
292;DHT22;23311;48.776;9.162;2023-06-22T00:13:44;21.80;95.50
292;DHT22;23311;48.776;9.162;2023-06-22T00:16:14;21.70;95.50
292;DHT22;23311;48.776;9.162;2023-06-22T00:18:42;21.70;95.50
292;DHT22;23311;48.776;9.162;2023-06-22T00:21:14;21.70;95.50
292;DHT22;23311;48.776;9.162;2023-06-22T00:23:42;21.70;95.50
292;DHT22;23311;48.776;9.162;2023-06-22T00:26:10;21.80;95.50
292;DHT22;23311;48.776;9.162;2023-06-22T00:28:40;21.80;95.50
292;DHT22;23311;48.776;9.162;2023-06-22T00:31:08;21.70;95.50
292;DHT22;23311;48.776;9.162;2023-06-22T00:33:36;21.60;95.50
292;DHT22;23311;48.776;9.162;2023-06-22T00:36:05;21.60;95.50
292;DHT22;23311;48.776;9.162;2023-06-22T00:38:34;21.60;95.50
292;DHT22;23311;48.776;9.162;2023-06-22T00:41:07;21.40;95.50
292;DHT22;23311;48.776;9.162;2023-06-22T00:43:35;21.40;95.50
292;DHT22;23311;48.776;9.162;2023-06-22T00:46:05;21.30;95.50
292;DHT22;23311;48.776;9.162;2023-06-22T00:48:33;21.30;95.50
292;DHT22;23311;48.776;9.162;2023-06-22T00:51:03;21.30;95.50
292;DHT22;23311;48.776;9.162;2023-06-22T00:53:32;21.20;95.50
292;DHT22;23311;48.776;9.162;2023-06-22T00:56:02;21.20;95.50
292;DHT22;23311;48.776;9.162;2023-06-22T00:58:30;21.30;95.50
292;DHT22;23311;48.776;9.162;2023-06-22T01:00:58;21.30;95.50
292;DHT22;23311;48.776;9.162;2023-06-22T01:03:28;21.40;95.50
292;DHT22;23311;48.776;9.162;2023-06-22T01:06:03;21.50;95.50
292;DHT22;23311;48.776;9.162;2023-06-22T01:08:42;21.50;95.50
292;DHT22;23311;48.776;9.162;2023-06-22T01:11:17;21.50;95.50
292;DHT22;23311;48.776;9.162;2023-06-22T01:13:52;21.70;95.50
292;DHT22;23311;48.776;9.162;2023-06-22T01:16:24;21.70;95.50
292;DHT22;23311;48.776;9.162;2023-06-22T01:18:57;21.60;95.50
292;DHT22;23311;48.776;9.162;2023-06-22T01:21:29;21.50;95.50
292;DHT22;23311;48.776;9.162;2023-06-22T01:24:07;21.50;95.50
292;DHT22;23311;48.776;9.162;2023-06-22T01:26:42;21.40;95.50
292;DHT22;23311;48.776;9.162;2023-06-22T01:29:13;21.30;95.50
292;DHT22;23311;48.776;9.162;2023-06-22T01:31:43;21.20;95.50
292;DHT22;23311;48.776;9.162;2023-06-22T01:34:13;21.20;95.50
292;DHT22;23311;48.776;9.162;2023-06-22T01:36:42;21.10;95.50
292;DHT22;23311;48.776;9.162;2023-06-22T01:39:11;21.00;95.50
292;DHT22;23311;48.776;9.162;2023-06-22T01:41:41;21.00;95.50
292;DHT22;23311;48.776;9.162;2023-06-22T01:44:12;21.00;95.50
292;DHT22;23311;48.776;9.162;2023-06-22T01:46:40;21.00;95.50
292;DHT22;23311;48.776;9.162;2023-06-22T01:49:09;20.90;95.50
292;DHT22;23311;48.776;9.162;2023-06-22T01:51:37;20.90;95.50
292;DHT22;23311;48.776;9.162;2023-06-22T01:54:06;20.80;95.50
292;DHT22;23311;48.776;9.162;2023-06-22T01:56:35;20.90;95.50
292;DHT22;23311;48.776;9.162;2023-06-22T01:59:09;20.90;95.50
292;DHT22;23311;48.776;9.162;2023-06-22T02:01:43;20.90;95.50
292;DHT22;23311;48.776;9.162;2023-06-22T02:04:13;20.80;95.50
292;DHT22;23311;48.776;9.162;2023-06-22T02:06:47;20.70;95.50
292;DHT22;23311;48.776;9.162;2023-06-22T02:09:19;20.60;95.50
292;DHT22;23311;48.776;9.162;2023-06-22T02:11:50;20.60;95.50
292;DHT22;23311;48.776;9.162;2023-06-22T02:14:22;20.60;95.50
292;DHT22;23311;48.776;9.162;2023-06-22T02:16:52;20.50;95.50
292;DHT22;23311;48.776;9.162;2023-06-22T02:19:23;20.50;95.50
292;DHT22;23311;48.776;9.162;2023-06-22T02:21:51;20.30;95.50
292;DHT22;23311;48.776;9.162;2023-06-22T02:24:19;20.20;95.50
292;DHT22;23311;48.776;9.162;2023-06-22T02:26:50;20.20;95.50
292;DHT22;23311;48.776;9.162;2023-06-22T02:29:18;20.10;95.50
292;DHT22;23311;48.776;9.162;2023-06-22T02:31:46;20.20;95.50
292;DHT22;23311;48.776;9.162;2023-06-22T02:34:15;20.10;95.50
292;DHT22;23311;48.776;9.162;2023-06-22T02:36:45;20.10;95.50
292;DHT22;23311;48.776;9.162;2023-06-22T02:39:19;20.20;95.50
292;DHT22;23311;48.776;9.162;2023-06-22T02:41:49;20.30;95.50
292;DHT22;23311;48.776;9.162;2023-06-22T02:44:17;20.30;95.50
292;DHT22;23311;48.776;9.162;2023-06-22T02:46:46;20.40;95.50
292;DHT22;23311;48.776;9.162;2023-06-22T02:49:16;20.40;95.50
292;DHT22;23311;48.776;9.162;2023-06-22T02:51:46;20.40;95.50
292;DHT22;23311;48.776;9.162;2023-06-22T02:54:14;20.40;95.50
292;DHT22;23311;48.776;9.162;2023-06-22T02:56:43;20.30;95.50
292;DHT22;23311;48.776;9.162;2023-06-22T02:59:11;20.20;95.50
292;DHT22;23311;48.776;9.162;2023-06-22T03:01:40;20.10;95.50
292;DHT22;23311;48.776;9.162;2023-06-22T03:04:09;20.10;95.50
292;DHT22;23311;48.776;9.162;2023-06-22T03:06:38;20.00;95.50
292;DHT22;23311;48.776;9.162;2023-06-22T03:09:07;20.00;95.50
292;DHT22;23311;48.776;9.162;2023-06-22T03:11:35;20.00;95.50
292;DHT22;23311;48.776;9.162;2023-06-22T03:14:03;19.90;95.50
292;DHT22;23311;48.776;9.162;2023-06-22T03:16:31;19.90;95.50
292;DHT22;23311;48.776;9.162;2023-06-22T03:19:00;19.90;95.50
292;DHT22;23311;48.776;9.162;2023-06-22T03:21:29;20.00;95.50
292;DHT22;23311;48.776;9.162;2023-06-22T03:23:58;20.00;95.50
292;DHT22;23311;48.776;9.162;2023-06-22T03:26:26;19.90;95.50
292;DHT22;23311;48.776;9.162;2023-06-22T03:28:54;19.90;95.50
292;DHT22;23311;48.776;9.162;2023-06-22T03:31:23;19.90;95.50
292;DHT22;23311;48.776;9.162;2023-06-22T03:33:51;19.90;95.50
292;DHT22;23311;48.776;9.162;2023-06-22T03:36:19;19.90;95.50
292;DHT22;23311;48.776;9.162;2023-06-22T03:38:49;19.90;95.50
292;DHT22;23311;48.776;9.162;2023-06-22T03:41:19;19.90;95.50
292;DHT22;23311;48.776;9.162;2023-06-22T03:43:47;19.90;95.50
292;DHT22;23311;48.776;9.162;2023-06-22T03:46:15;19.90;95.50
292;DHT22;23311;48.776;9.162;2023-06-22T03:48:43;19.90;95.50
292;DHT22;23311;48.776;9.162;2023-06-22T03:51:11;19.90;95.50
292;DHT22;23311;48.776;9.162;2023-06-22T03:53:39;19.90;95.50
292;DHT22;23311;48.776;9.162;2023-06-22T03:56:07;20.00;95.50
292;DHT22;23311;48.776;9.162;2023-06-22T03:58:37;20.00;95.50
292;DHT22;23311;48.776;9.162;2023-06-22T04:01:10;20.10;95.50
292;DHT22;23311;48.776;9.162;2023-06-22T04:03:39;20.10;95.50
292;DHT22;23311;48.776;9.162;2023-06-22T04:06:07;20.20;95.50
292;DHT22;23311;48.776;9.162;2023-06-22T04:08:35;20.30;95.50
292;DHT22;23311;48.776;9.162;2023-06-22T04:11:03;20.50;95.50
292;DHT22;23311;48.776;9.162;2023-06-22T04:13:31;20.80;95.50
292;DHT22;23311;48.776;9.162;2023-06-22T04:16:01;21.10;95.50
292;DHT22;23311;48.776;9.162;2023-06-22T04:18:29;21.40;95.50
292;DHT22;23311;48.776;9.162;2023-06-22T04:20:57;21.70;95.50
292;DHT22;23311;48.776;9.162;2023-06-22T04:23:25;22.10;95.50
292;DHT22;23311;48.776;9.162;2023-06-22T04:25:53;22.20;95.50
292;DHT22;23311;48.776;9.162;2023-06-22T04:28:23;22.30;95.50
292;DHT22;23311;48.776;9.162;2023-06-22T04:30:54;22.40;95.50
292;DHT22;23311;48.776;9.162;2023-06-22T04:33:26;22.50;95.50
292;DHT22;23311;48.776;9.162;2023-06-22T04:35:54;22.60;95.50
292;DHT22;23311;48.776;9.162;2023-06-22T04:38:24;23.00;95.50
292;DHT22;23311;48.776;9.162;2023-06-22T04:40:53;23.30;95.50
292;DHT22;23311;48.776;9.162;2023-06-22T04:43:21;23.40;95.50
292;DHT22;23311;48.776;9.162;2023-06-22T04:45:49;23.50;95.50
292;DHT22;23311;48.776;9.162;2023-06-22T04:48:19;23.50;95.50
292;DHT22;23311;48.776;9.162;2023-06-22T04:50:49;23.20;95.50
292;DHT22;23311;48.776;9.162;2023-06-22T04:53:17;23.20;95.50
292;DHT22;23311;48.776;9.162;2023-06-22T04:55:45;23.10;95.50
292;DHT22;23311;48.776;9.162;2023-06-22T04:58:16;23.50;95.50
292;DHT22;23311;48.776;9.162;2023-06-22T05:00:46;23.80;95.50
292;DHT22;23311;48.776;9.162;2023-06-22T05:03:17;24.00;95.50
292;DHT22;23311;48.776;9.162;2023-06-22T05:05:46;24.10;95.50
292;DHT22;23311;48.776;9.162;2023-06-22T05:08:16;24.30;95.50
292;DHT22;23311;48.776;9.162;2023-06-22T05:10:44;24.20;95.50
292;DHT22;23311;48.776;9.162;2023-06-22T05:13:30;24.20;95.50
292;DHT22;23311;48.776;9.162;2023-06-22T05:15:58;24.00;95.50
292;DHT22;23311;48.776;9.162;2023-06-22T05:18:30;24.40;95.50
292;DHT22;23311;48.776;9.162;2023-06-22T05:21:00;24.50;95.50
292;DHT22;23311;48.776;9.162;2023-06-22T05:23:30;24.60;95.50
292;DHT22;23311;48.776;9.162;2023-06-22T05:25:58;24.90;95.50
292;DHT22;23311;48.776;9.162;2023-06-22T05:28:26;25.60;95.50
292;DHT22;23311;48.776;9.162;2023-06-22T05:30:54;26.10;94.00
292;DHT22;23311;48.776;9.162;2023-06-22T05:33:22;26.40;92.50
292;DHT22;23311;48.776;9.162;2023-06-22T05:35:50;26.70;92.10
292;DHT22;23311;48.776;9.162;2023-06-22T05:38:18;27.20;90.50
292;DHT22;23311;48.776;9.162;2023-06-22T05:40:48;27.40;89.70
292;DHT22;23311;48.776;9.162;2023-06-22T05:43:16;27.60;89.40
292;DHT22;23311;48.776;9.162;2023-06-22T05:45:44;27.90;88.20
292;DHT22;23311;48.776;9.162;2023-06-22T05:48:12;27.60;88.70
292;DHT22;23311;48.776;9.162;2023-06-22T05:50:41;27.70;89.30
292;DHT22;23311;48.776;9.162;2023-06-22T05:53:09;28.30;86.80
292;DHT22;23311;48.776;9.162;2023-06-22T05:55:37;28.10;87.60
292;DHT22;23311;48.776;9.162;2023-06-22T05:58:07;28.10;87.00
292;DHT22;23311;48.776;9.162;2023-06-22T06:00:35;28.40;86.50
292;DHT22;23311;48.776;9.162;2023-06-22T06:03:04;27.70;87.50
292;DHT22;23311;48.776;9.162;2023-06-22T06:05:33;26.60;90.10
292;DHT22;23311;48.776;9.162;2023-06-22T06:08:03;26.00;92.00
292;DHT22;23311;48.776;9.162;2023-06-22T06:10:32;25.40;93.60
292;DHT22;23311;48.776;9.162;2023-06-22T06:13:01;25.30;94.50
292;DHT22;23311;48.776;9.162;2023-06-22T06:15:34;25.50;93.90
292;DHT22;23311;48.776;9.162;2023-06-22T06:18:03;25.60;93.40
292;DHT22;23311;48.776;9.162;2023-06-22T06:20:32;26.10;92.60
292;DHT22;23311;48.776;9.162;2023-06-22T06:23:01;27.10;90.00
292;DHT22;23311;48.776;9.162;2023-06-22T06:25:29;27.80;88.20
292;DHT22;23311;48.776;9.162;2023-06-22T06:27:57;28.30;87.00
292;DHT22;23311;48.776;9.162;2023-06-22T06:30:25;29.10;84.10
292;DHT22;23311;48.776;9.162;2023-06-22T06:32:55;29.20;84.30
292;DHT22;23311;48.776;9.162;2023-06-22T06:35:24;29.80;82.60
292;DHT22;23311;48.776;9.162;2023-06-22T06:37:52;30.40;81.20
292;DHT22;23311;48.776;9.162;2023-06-22T06:40:20;29.80;82.00
292;DHT22;23311;48.776;9.162;2023-06-22T06:42:48;30.20;81.50
292;DHT22;23311;48.776;9.162;2023-06-22T06:45:18;30.70;80.20
292;DHT22;23311;48.776;9.162;2023-06-22T06:47:46;31.30;79.00
292;DHT22;23311;48.776;9.162;2023-06-22T06:50:17;31.30;77.70
292;DHT22;23311;48.776;9.162;2023-06-22T06:52:45;30.30;80.80
292;DHT22;23311;48.776;9.162;2023-06-22T06:55:14;30.50;80.50
292;DHT22;23311;48.776;9.162;2023-06-22T06:57:44;31.30;78.20
292;DHT22;23311;48.776;9.162;2023-06-22T07:00:15;32.00;76.40
292;DHT22;23311;48.776;9.162;2023-06-22T07:02:44;32.30;75.90
292;DHT22;23311;48.776;9.162;2023-06-22T07:05:17;32.40;75.50
292;DHT22;23311;48.776;9.162;2023-06-22T07:07:45;32.80;74.30
292;DHT22;23311;48.776;9.162;2023-06-22T07:10:13;32.90;74.20
292;DHT22;23311;48.776;9.162;2023-06-22T07:12:42;33.40;73.20
292;DHT22;23311;48.776;9.162;2023-06-22T07:15:10;33.10;73.60
292;DHT22;23311;48.776;9.162;2023-06-22T07:17:39;33.40;73.00
292;DHT22;23311;48.776;9.162;2023-06-22T07:20:09;33.20;73.20
292;DHT22;23311;48.776;9.162;2023-06-22T07:22:43;33.50;72.50
292;DHT22;23311;48.776;9.162;2023-06-22T07:25:12;33.80;72.00
292;DHT22;23311;48.776;9.162;2023-06-22T07:27:46;33.10;73.40
292;DHT22;23311;48.776;9.162;2023-06-22T07:30:15;33.20;72.70
292;DHT22;23311;48.776;9.162;2023-06-22T07:32:43;33.00;72.90
292;DHT22;23311;48.776;9.162;2023-06-22T07:35:11;33.00;72.90
292;DHT22;23311;48.776;9.162;2023-06-22T07:37:40;33.20;72.90
292;DHT22;23311;48.776;9.162;2023-06-22T07:40:09;33.60;72.20
292;DHT22;23311;48.776;9.162;2023-06-22T07:42:38;33.70;71.50
292;DHT22;23311;48.776;9.162;2023-06-22T07:45:07;33.50;72.10
292;DHT22;23311;48.776;9.162;2023-06-22T07:47:35;33.80;71.40
292;DHT22;23311;48.776;9.162;2023-06-22T07:50:05;33.40;72.50
292;DHT22;23311;48.776;9.162;2023-06-22T07:52:33;32.60;74.20
292;DHT22;23311;48.776;9.162;2023-06-22T07:55:03;33.50;72.50
292;DHT22;23311;48.776;9.162;2023-06-22T07:57:31;33.80;71.40
292;DHT22;23311;48.776;9.162;2023-06-22T08:00:04;33.70;71.80
292;DHT22;23311;48.776;9.162;2023-06-22T08:02:39;33.50;72.00
292;DHT22;23311;48.776;9.162;2023-06-22T08:05:09;33.60;72.20
292;DHT22;23311;48.776;9.162;2023-06-22T08:07:41;33.30;72.70
292;DHT22;23311;48.776;9.162;2023-06-22T08:10:15;34.50;70.60
292;DHT22;23311;48.776;9.162;2023-06-22T08:12:43;34.70;69.60
292;DHT22;23311;48.776;9.162;2023-06-22T08:15:11;34.30;70.40
292;DHT22;23311;48.776;9.162;2023-06-22T08:17:40;34.40;70.70
292;DHT22;23311;48.776;9.162;2023-06-22T08:20:09;34.90;68.70
292;DHT22;23311;48.776;9.162;2023-06-22T08:22:39;34.90;68.90
292;DHT22;23311;48.776;9.162;2023-06-22T08:25:08;34.70;69.20
292;DHT22;23311;48.776;9.162;2023-06-22T08:27:38;33.80;70.60
292;DHT22;23311;48.776;9.162;2023-06-22T08:30:07;32.80;72.50
292;DHT22;23311;48.776;9.162;2023-06-22T08:32:35;32.50;73.10
292;DHT22;23311;48.776;9.162;2023-06-22T08:35:04;31.70;74.70
292;DHT22;23311;48.776;9.162;2023-06-22T08:37:33;31.50;75.20
292;DHT22;23311;48.776;9.162;2023-06-22T08:40:04;31.80;74.80
292;DHT22;23311;48.776;9.162;2023-06-22T08:42:32;31.60;75.60
292;DHT22;23311;48.776;9.162;2023-06-22T08:45:02;32.40;74.00
292;DHT22;23311;48.776;9.162;2023-06-22T08:47:31;32.60;73.00
292;DHT22;23311;48.776;9.162;2023-06-22T08:50:00;33.50;71.70
292;DHT22;23311;48.776;9.162;2023-06-22T08:52:30;34.80;68.40
292;DHT22;23311;48.776;9.162;2023-06-22T08:54:58;35.00;67.90
292;DHT22;23311;48.776;9.162;2023-06-22T08:57:26;34.30;68.30
292;DHT22;23311;48.776;9.162;2023-06-22T08:59:55;34.00;70.10
292;DHT22;23311;48.776;9.162;2023-06-22T09:02:27;35.50;67.10
292;DHT22;23311;48.776;9.162;2023-06-22T09:04:58;34.80;67.80
292;DHT22;23311;48.776;9.162;2023-06-22T09:07:27;34.00;69.30
292;DHT22;23311;48.776;9.162;2023-06-22T09:09:55;33.70;70.10
292;DHT22;23311;48.776;9.162;2023-06-22T09:12:24;32.50;72.60
292;DHT22;23311;48.776;9.162;2023-06-22T09:14:54;33.60;70.70
292;DHT22;23311;48.776;9.162;2023-06-22T09:17:22;32.80;72.00
292;DHT22;23311;48.776;9.162;2023-06-22T09:19:51;33.00;71.30
292;DHT22;23311;48.776;9.162;2023-06-22T09:22:20;32.90;72.20
292;DHT22;23311;48.776;9.162;2023-06-22T09:24:48;33.60;71.00
292;DHT22;23311;48.776;9.162;2023-06-22T09:27:16;33.50;71.20
292;DHT22;23311;48.776;9.162;2023-06-22T09:29:44;34.10;69.60
292;DHT22;23311;48.776;9.162;2023-06-22T09:32:13;36.10;66.20
292;DHT22;23311;48.776;9.162;2023-06-22T09:34:41;36.80;64.20
292;DHT22;23311;48.776;9.162;2023-06-22T09:37:10;35.50;66.20
292;DHT22;23311;48.776;9.162;2023-06-22T09:39:38;36.80;64.60
292;DHT22;23311;48.776;9.162;2023-06-22T09:42:07;37.40;63.50
292;DHT22;23311;48.776;9.162;2023-06-22T09:44:35;38.10;62.30
292;DHT22;23311;48.776;9.162;2023-06-22T09:47:04;38.70;61.40
292;DHT22;23311;48.776;9.162;2023-06-22T09:49:32;39.20;60.70
292;DHT22;23311;48.776;9.162;2023-06-22T09:52:15;39.00;60.30
292;DHT22;23311;48.776;9.162;2023-06-22T09:54:43;38.10;62.00
292;DHT22;23311;48.776;9.162;2023-06-22T09:57:11;38.60;61.20
292;DHT22;23311;48.776;9.162;2023-06-22T09:59:40;38.20;61.70
292;DHT22;23311;48.776;9.162;2023-06-22T10:02:08;37.40;62.60
292;DHT22;23311;48.776;9.162;2023-06-22T10:04:37;37.20;63.10
292;DHT22;23311;48.776;9.162;2023-06-22T10:07:06;37.10;63.60
292;DHT22;23311;48.776;9.162;2023-06-22T10:09:36;36.50;64.40
292;DHT22;23311;48.776;9.162;2023-06-22T10:12:04;36.20;65.20
292;DHT22;23311;48.776;9.162;2023-06-22T10:14:32;35.70;66.10
292;DHT22;23311;48.776;9.162;2023-06-22T10:17:01;35.40;66.50
292;DHT22;23311;48.776;9.162;2023-06-22T10:19:30;34.50;68.30
292;DHT22;23311;48.776;9.162;2023-06-22T10:21:58;34.60;68.50
292;DHT22;23311;48.776;9.162;2023-06-22T10:24:26;35.40;67.30
292;DHT22;23311;48.776;9.162;2023-06-22T10:26:55;35.80;66.50
292;DHT22;23311;48.776;9.162;2023-06-22T10:29:23;36.30;65.70
292;DHT22;23311;48.776;9.162;2023-06-22T10:31:51;36.50;65.10
292;DHT22;23311;48.776;9.162;2023-06-22T10:34:20;36.30;65.20
292;DHT22;23311;48.776;9.162;2023-06-22T10:36:48;36.70;64.30
292;DHT22;23311;48.776;9.162;2023-06-22T10:39:16;37.40;63.10
292;DHT22;23311;48.776;9.162;2023-06-22T10:41:44;38.20;61.80
292;DHT22;23311;48.776;9.162;2023-06-22T10:44:14;39.20;60.50
292;DHT22;23311;48.776;9.162;2023-06-22T10:46:42;39.40;60.00
292;DHT22;23311;48.776;9.162;2023-06-22T10:49:10;39.40;59.70
292;DHT22;23311;48.776;9.162;2023-06-22T10:51:38;38.60;60.80
292;DHT22;23311;48.776;9.162;2023-06-22T10:54:06;38.30;61.10
292;DHT22;23311;48.776;9.162;2023-06-22T10:56:34;37.70;62.10
292;DHT22;23311;48.776;9.162;2023-06-22T10:59:02;37.10;63.00
292;DHT22;23311;48.776;9.162;2023-06-22T11:01:32;36.50;63.80
292;DHT22;23311;48.776;9.162;2023-06-22T11:04:03;35.80;65.70
292;DHT22;23311;48.776;9.162;2023-06-22T11:06:32;35.70;65.70
292;DHT22;23311;48.776;9.162;2023-06-22T11:09:00;35.80;65.70
292;DHT22;23311;48.776;9.162;2023-06-22T11:11:38;35.60;65.70
292;DHT22;23311;48.776;9.162;2023-06-22T11:14:06;35.70;65.80
292;DHT22;23311;48.776;9.162;2023-06-22T11:16:35;35.70;66.20
292;DHT22;23311;48.776;9.162;2023-06-22T11:19:05;35.60;66.30
292;DHT22;23311;48.776;9.162;2023-06-22T11:21:33;35.40;66.60
292;DHT22;23311;48.776;9.162;2023-06-22T11:24:01;34.90;67.90
292;DHT22;23311;48.776;9.162;2023-06-22T11:26:29;35.00;67.70
292;DHT22;23311;48.776;9.162;2023-06-22T11:28:58;35.10;67.30
292;DHT22;23311;48.776;9.162;2023-06-22T11:31:27;34.90;67.70
292;DHT22;23311;48.776;9.162;2023-06-22T11:33:56;34.80;68.00
292;DHT22;23311;48.776;9.162;2023-06-22T11:36:25;34.80;68.10
292;DHT22;23311;48.776;9.162;2023-06-22T11:38:53;35.10;67.60
292;DHT22;23311;48.776;9.162;2023-06-22T11:41:21;35.30;67.20
292;DHT22;23311;48.776;9.162;2023-06-22T11:43:50;35.90;66.50
292;DHT22;23311;48.776;9.162;2023-06-22T11:46:18;36.00;65.60
292;DHT22;23311;48.776;9.162;2023-06-22T11:48:46;35.70;66.60
292;DHT22;23311;48.776;9.162;2023-06-22T11:51:15;36.50;65.90
292;DHT22;23311;48.776;9.162;2023-06-22T11:53:43;36.60;65.00
292;DHT22;23311;48.776;9.162;2023-06-22T11:56:11;36.00;65.60
292;DHT22;23311;48.776;9.162;2023-06-22T11:58:40;36.20;65.90
292;DHT22;23311;48.776;9.162;2023-06-22T12:01:08;36.10;66.20
292;DHT22;23311;48.776;9.162;2023-06-22T12:03:36;35.60;67.00
292;DHT22;23311;48.776;9.162;2023-06-22T12:06:04;35.80;66.80
292;DHT22;23311;48.776;9.162;2023-06-22T12:08:34;35.70;66.20
292;DHT22;23311;48.776;9.162;2023-06-22T12:11:02;34.40;67.40
292;DHT22;23311;48.776;9.162;2023-06-22T12:13:30;33.70;70.10
292;DHT22;23311;48.776;9.162;2023-06-22T12:15:58;34.10;69.90
292;DHT22;23311;48.776;9.162;2023-06-22T12:18:26;34.50;69.90
292;DHT22;23311;48.776;9.162;2023-06-22T12:20:54;34.50;70.00
292;DHT22;23311;48.776;9.162;2023-06-22T12:23:22;34.20;70.70
292;DHT22;23311;48.776;9.162;2023-06-22T12:25:52;34.60;69.90
292;DHT22;23311;48.776;9.162;2023-06-22T12:28:20;34.80;69.30
292;DHT22;23311;48.776;9.162;2023-06-22T12:30:50;35.10;68.60
292;DHT22;23311;48.776;9.162;2023-06-22T12:33:18;35.40;68.20
292;DHT22;23311;48.776;9.162;2023-06-22T12:35:46;34.90;68.60
292;DHT22;23311;48.776;9.162;2023-06-22T12:38:16;34.90;69.10
292;DHT22;23311;48.776;9.162;2023-06-22T12:40:44;34.80;69.30
292;DHT22;23311;48.776;9.162;2023-06-22T12:43:15;34.40;69.30
292;DHT22;23311;48.776;9.162;2023-06-22T12:45:43;34.10;70.20
292;DHT22;23311;48.776;9.162;2023-06-22T12:48:11;33.60;71.60
292;DHT22;23311;48.776;9.162;2023-06-22T12:50:40;33.90;71.40
292;DHT22;23311;48.776;9.162;2023-06-22T12:53:08;34.20;70.80
292;DHT22;23311;48.776;9.162;2023-06-22T12:55:36;33.90;71.40
292;DHT22;23311;48.776;9.162;2023-06-22T12:58:04;34.00;71.60
292;DHT22;23311;48.776;9.162;2023-06-22T13:00:34;33.90;71.60
292;DHT22;23311;48.776;9.162;2023-06-22T13:03:02;33.80;71.90
292;DHT22;23311;48.776;9.162;2023-06-22T13:05:30;33.80;71.80
292;DHT22;23311;48.776;9.162;2023-06-22T13:08:01;33.40;72.60
292;DHT22;23311;48.776;9.162;2023-06-22T13:10:30;33.20;73.20
292;DHT22;23311;48.776;9.162;2023-06-22T13:12:58;33.40;72.60
292;DHT22;23311;48.776;9.162;2023-06-22T13:15:28;33.60;72.60
292;DHT22;23311;48.776;9.162;2023-06-22T13:17:58;33.50;72.70
292;DHT22;23311;48.776;9.162;2023-06-22T13:20:28;33.50;72.90
292;DHT22;23311;48.776;9.162;2023-06-22T13:22:56;33.50;72.90
292;DHT22;23311;48.776;9.162;2023-06-22T13:25:24;33.50;73.10
292;DHT22;23311;48.776;9.162;2023-06-22T13:27:54;34.00;72.40
292;DHT22;23311;48.776;9.162;2023-06-22T13:30:22;34.40;71.70
292;DHT22;23311;48.776;9.162;2023-06-22T13:32:50;34.30;72.10
292;DHT22;23311;48.776;9.162;2023-06-22T13:35:20;33.70;73.00
292;DHT22;23311;48.776;9.162;2023-06-22T13:37:48;33.90;72.70
292;DHT22;23311;48.776;9.162;2023-06-22T13:40:16;34.00;72.00
292;DHT22;23311;48.776;9.162;2023-06-22T13:42:44;34.60;71.00
292;DHT22;23311;48.776;9.162;2023-06-22T13:45:12;35.00;70.10
292;DHT22;23311;48.776;9.162;2023-06-22T13:47:43;35.20;69.70
292;DHT22;23311;48.776;9.162;2023-06-22T13:50:11;35.40;69.10
292;DHT22;23311;48.776;9.162;2023-06-22T13:52:41;35.40;68.60
292;DHT22;23311;48.776;9.162;2023-06-22T13:55:10;35.00;68.70
292;DHT22;23311;48.776;9.162;2023-06-22T13:57:38;35.00;68.70
292;DHT22;23311;48.776;9.162;2023-06-22T14:00:07;34.90;68.70
292;DHT22;23311;48.776;9.162;2023-06-22T14:02:35;35.00;68.90
292;DHT22;23311;48.776;9.162;2023-06-22T14:05:04;34.90;69.30
292;DHT22;23311;48.776;9.162;2023-06-22T14:07:32;34.80;69.60
292;DHT22;23311;48.776;9.162;2023-06-22T14:10:02;35.10;68.90
292;DHT22;23311;48.776;9.162;2023-06-22T14:12:30;35.20;68.90
292;DHT22;23311;48.776;9.162;2023-06-22T14:14:58;35.00;68.90
292;DHT22;23311;48.776;9.162;2023-06-22T14:17:26;35.10;69.20
292;DHT22;23311;48.776;9.162;2023-06-22T14:19:54;35.10;68.70
292;DHT22;23311;48.776;9.162;2023-06-22T14:22:23;36.10;66.90
292;DHT22;23311;48.776;9.162;2023-06-22T14:24:51;37.20;65.20
292;DHT22;23311;48.776;9.162;2023-06-22T14:27:20;37.10;64.80
292;DHT22;23311;48.776;9.162;2023-06-22T14:29:48;37.40;63.90
292;DHT22;23311;48.776;9.162;2023-06-22T14:32:16;37.20;62.90
292;DHT22;23311;48.776;9.162;2023-06-22T14:34:44;36.50;63.40
292;DHT22;23311;48.776;9.162;2023-06-22T14:37:12;36.10;63.50
292;DHT22;23311;48.776;9.162;2023-06-22T14:39:41;35.00;65.60
292;DHT22;23311;48.776;9.162;2023-06-22T14:42:09;35.70;65.00
292;DHT22;23311;48.776;9.162;2023-06-22T14:44:39;36.60;63.20
292;DHT22;23311;48.776;9.162;2023-06-22T14:47:07;37.40;61.10
292;DHT22;23311;48.776;9.162;2023-06-22T14:49:35;37.10;60.50
292;DHT22;23311;48.776;9.162;2023-06-22T14:52:04;36.50;62.30
292;DHT22;23311;48.776;9.162;2023-06-22T14:54:33;36.40;62.30
292;DHT22;23311;48.776;9.162;2023-06-22T14:57:01;36.20;61.90
292;DHT22;23311;48.776;9.162;2023-06-22T14:59:30;36.70;60.60
292;DHT22;23311;48.776;9.162;2023-06-22T15:01:59;37.10;60.40
292;DHT22;23311;48.776;9.162;2023-06-22T15:04:27;35.70;57.40
292;DHT22;23311;48.776;9.162;2023-06-22T15:06:58;34.90;58.70
292;DHT22;23311;48.776;9.162;2023-06-22T15:09:26;34.20;57.80
292;DHT22;23311;48.776;9.162;2023-06-22T15:11:54;34.00;58.10
292;DHT22;23311;48.776;9.162;2023-06-22T15:14:22;34.20;58.20
292;DHT22;23311;48.776;9.162;2023-06-22T15:16:51;34.90;57.50
292;DHT22;23311;48.776;9.162;2023-06-22T15:19:20;35.00;56.30
292;DHT22;23311;48.776;9.162;2023-06-22T15:21:48;35.00;56.90
292;DHT22;23311;48.776;9.162;2023-06-22T15:24:16;35.00;56.70
292;DHT22;23311;48.776;9.162;2023-06-22T15:26:45;34.90;57.20
292;DHT22;23311;48.776;9.162;2023-06-22T15:29:13;35.10;57.00
292;DHT22;23311;48.776;9.162;2023-06-22T15:31:41;35.70;55.90
292;DHT22;23311;48.776;9.162;2023-06-22T15:34:09;35.70;55.70
292;DHT22;23311;48.776;9.162;2023-06-22T15:36:38;35.70;55.80
292;DHT22;23311;48.776;9.162;2023-06-22T15:39:06;35.90;54.50
292;DHT22;23311;48.776;9.162;2023-06-22T15:41:34;35.50;54.90
292;DHT22;23311;48.776;9.162;2023-06-22T15:44:03;33.80;56.60
292;DHT22;23311;48.776;9.162;2023-06-22T15:46:31;34.20;56.90
292;DHT22;23311;48.776;9.162;2023-06-22T15:48:59;34.70;56.20
292;DHT22;23311;48.776;9.162;2023-06-22T15:51:27;35.40;55.50
292;DHT22;23311;48.776;9.162;2023-06-22T15:53:57;34.50;56.50
292;DHT22;23311;48.776;9.162;2023-06-22T15:56:25;33.70;57.40
292;DHT22;23311;48.776;9.162;2023-06-22T15:58:54;33.70;57.60
292;DHT22;23311;48.776;9.162;2023-06-22T16:01:23;33.60;58.10
292;DHT22;23311;48.776;9.162;2023-06-22T16:03:52;33.10;59.10
292;DHT22;23311;48.776;9.162;2023-06-22T16:06:20;32.80;60.00
292;DHT22;23311;48.776;9.162;2023-06-22T16:08:48;33.10;59.90
292;DHT22;23311;48.776;9.162;2023-06-22T16:11:18;33.30;59.80
292;DHT22;23311;48.776;9.162;2023-06-22T16:13:46;33.10;59.40